createdAt,value
2022-12-03T00:01:13.826Z,30.70
2022-12-03T00:03:40.992Z,30.38
2022-12-03T00:06:08.068Z,26.75
2022-12-03T00:08:35.057Z,21.40
2022-12-03T00:11:01.880Z,24.15
2022-12-03T00:13:28.772Z,29.60
2022-12-03T00:15:55.682Z,25.75
2022-12-03T00:18:22.508Z,25.52
2022-12-03T00:20:49.384Z,23.58
2022-12-03T00:23:16.224Z,28.98
2022-12-03T00:25:43.149Z,24.90
2022-12-03T00:28:10.248Z,37.30
2022-12-03T00:30:37.137Z,27.55
2022-12-03T00:33:04.167Z,21.75
2022-12-03T00:35:31.067Z,23.50
2022-12-03T00:37:57.883Z,23.40
2022-12-03T00:40:24.811Z,24.88
2022-12-03T00:42:51.624Z,24.10
2022-12-03T00:45:18.475Z,24.75
2022-12-03T00:47:45.299Z,22.90
2022-12-03T00:50:12.352Z,24.65
2022-12-03T00:52:39.161Z,23.27
2022-12-03T00:55:06.418Z,23.85
2022-12-03T00:57:33.239Z,21.70
2022-12-03T01:00:00.163Z,22.48
2022-12-03T01:02:27.032Z,24.70
2022-12-03T01:04:57.380Z,21.27
2022-12-03T01:07:24.401Z,18.75
2022-12-03T01:09:51.336Z,18.73
2022-12-03T01:12:18.311Z,18.48
2022-12-03T01:14:45.190Z,21.20
2022-12-03T01:17:12.594Z,18.88
2022-12-03T01:19:46.511Z,20.42
2022-12-03T01:22:15.054Z,20.92
2022-12-03T01:24:41.950Z,21.42
2022-12-03T01:27:08.911Z,18.75
2022-12-03T01:29:35.807Z,20.23
2022-12-03T01:32:17.575Z,22.20
2022-12-03T01:34:48.803Z,20.80
2022-12-03T01:37:16.811Z,23.88
2022-12-03T01:39:43.842Z,18.13
2022-12-03T01:42:25.935Z,19.90
2022-12-03T01:44:56.838Z,24.67
2022-12-03T01:47:33.806Z,20.85
2022-12-03T01:50:05.671Z,21.13
2022-12-03T01:52:36.747Z,22.90
2022-12-03T01:55:07.406Z,21.60
2022-12-03T01:57:43.692Z,25.90
2022-12-03T02:00:20.000Z,22.48
2022-12-03T02:02:53.579Z,23.98
2022-12-03T02:05:23.608Z,23.53
2022-12-03T02:07:51.779Z,21.83
2022-12-03T02:10:23.424Z,23.83
2022-12-03T02:13:16.399Z,21.27
2022-12-03T02:15:43.349Z,22.13
2022-12-03T02:18:10.482Z,20.85
2022-12-03T02:20:46.570Z,25.05
2022-12-03T02:23:26.286Z,21.08
2022-12-03T02:25:53.184Z,21.92
2022-12-03T02:28:20.040Z,20.17
2022-12-03T02:30:46.907Z,20.95
2022-12-03T02:33:13.787Z,22.23
2022-12-03T02:35:40.881Z,21.95
2022-12-03T02:38:26.230Z,21.08
2022-12-03T02:40:56.852Z,19.48
2022-12-03T02:43:24.170Z,21.88
2022-12-03T02:45:54.587Z,20.20
2022-12-03T02:48:26.051Z,22.38
2022-12-03T02:50:59.755Z,24.80
2022-12-03T02:53:33.421Z,19.27
2022-12-03T02:56:02.699Z,20.13
2022-12-03T02:58:32.770Z,22.42
2022-12-03T03:01:01.371Z,18.00
2022-12-03T03:03:29.883Z,19.88
2022-12-03T03:26:20.078Z,20.05
2022-12-03T03:28:51.045Z,20.00
2022-12-03T03:31:23.034Z,17.70
2022-12-03T03:33:50.508Z,16.65
2022-12-03T03:36:17.888Z,18.77
2022-12-03T03:38:44.904Z,21.48
2022-12-03T03:41:13.939Z,16.33
2022-12-03T03:43:43.150Z,17.02
2022-12-03T03:46:11.257Z,20.05
2022-12-03T03:48:40.487Z,20.13
2022-12-03T03:51:09.051Z,18.00
2022-12-03T03:53:40.416Z,21.23
2022-12-03T03:56:08.551Z,16.77
2022-12-03T03:58:36.011Z,20.25
2022-12-03T04:01:02.902Z,20.40
2022-12-03T04:03:30.021Z,16.05
2022-12-03T04:05:56.896Z,13.82
2022-12-03T04:08:28.330Z,17.33
2022-12-03T04:11:13.930Z,16.23
2022-12-03T04:13:40.854Z,14.45
2022-12-03T04:16:08.012Z,16.80
2022-12-03T04:18:43.715Z,17.80
2022-12-03T04:21:34.576Z,17.67
2022-12-03T04:24:01.841Z,16.00
2022-12-03T04:26:47.749Z,17.48
2022-12-03T04:29:17.958Z,17.67
2022-12-03T04:32:03.597Z,14.82
2022-12-03T04:34:48.917Z,19.65
2022-12-03T04:37:15.910Z,15.27
2022-12-03T04:39:42.878Z,16.40
2022-12-03T04:42:09.747Z,16.30
2022-12-03T04:44:36.692Z,19.38
2022-12-03T04:47:13.495Z,15.18
2022-12-03T04:49:45.764Z,14.48
2022-12-03T04:52:14.676Z,14.55
2022-12-03T04:54:42.216Z,14.20
2022-12-03T04:57:10.212Z,12.45
2022-12-03T04:59:38.137Z,13.30
2022-12-03T05:02:06.195Z,15.50
2022-12-03T05:04:33.263Z,14.23
2022-12-03T05:07:00.210Z,13.35
2022-12-03T05:09:27.079Z,16.15
2022-12-03T05:11:54.030Z,14.18
2022-12-03T05:14:22.034Z,12.57
2022-12-03T05:16:48.928Z,12.85
2022-12-03T05:19:15.822Z,14.00
2022-12-03T05:21:42.705Z,13.75
2022-12-03T05:24:09.549Z,14.68
2022-12-03T05:26:36.473Z,15.20
2022-12-03T05:29:03.800Z,13.15
2022-12-03T05:31:30.755Z,16.73
2022-12-03T05:33:57.712Z,18.02
2022-12-03T05:36:25.740Z,15.10
2022-12-03T05:38:52.706Z,18.77
2022-12-03T05:41:38.288Z,17.50
2022-12-03T05:44:05.172Z,17.58
2022-12-03T05:46:33.096Z,14.93
2022-12-03T05:49:00.068Z,21.25
2022-12-03T05:51:27.152Z,19.02
2022-12-03T05:53:53.972Z,17.27
2022-12-03T05:56:20.870Z,18.45
2022-12-03T05:58:47.719Z,16.98
2022-12-03T06:01:14.621Z,20.90
2022-12-03T06:03:41.573Z,18.98
2022-12-03T06:06:08.499Z,19.42
2022-12-03T06:08:35.350Z,19.92
2022-12-03T06:11:02.286Z,23.95
2022-12-03T06:13:29.120Z,20.05
2022-12-03T06:15:55.956Z,21.63
2022-12-03T06:18:22.810Z,20.80
2022-12-03T06:20:49.686Z,22.52
2022-12-03T06:23:16.622Z,28.38
2022-12-03T06:25:43.464Z,23.50
2022-12-03T06:28:10.370Z,24.05
2022-12-03T06:30:37.231Z,21.35
2022-12-03T06:33:04.170Z,27.35
2022-12-03T06:35:30.955Z,23.50
2022-12-03T06:37:58.041Z,28.33
2022-12-03T06:40:25.237Z,21.75
2022-12-03T06:42:52.391Z,21.88
2022-12-03T06:45:19.258Z,23.42
2022-12-03T06:47:46.111Z,20.30
2022-12-03T06:50:13.934Z,16.73
2022-12-03T06:52:40.824Z,20.17
2022-12-03T06:55:08.112Z,20.20
2022-12-03T06:57:34.992Z,19.02
2022-12-03T07:00:03.557Z,21.73
2022-12-03T07:02:30.583Z,25.52
2022-12-03T07:04:57.923Z,16.67
2022-12-03T07:07:25.060Z,17.08
2022-12-03T07:09:52.056Z,18.77
2022-12-03T07:12:19.036Z,20.42
2022-12-03T07:14:45.870Z,21.98
2022-12-03T07:17:12.715Z,22.92
2022-12-03T07:19:39.795Z,19.63
2022-12-03T07:22:06.771Z,21.15
2022-12-03T07:24:33.819Z,24.83
2022-12-03T07:27:00.725Z,17.70
2022-12-03T07:29:27.581Z,21.40
2022-12-03T07:31:54.565Z,20.88
2022-12-03T07:34:21.692Z,17.73
2022-12-03T07:36:48.530Z,18.88
2022-12-03T07:39:15.475Z,19.33
2022-12-03T07:41:42.395Z,21.67
2022-12-03T07:44:14.027Z,17.80
2022-12-03T07:46:41.607Z,20.05
2022-12-03T07:49:08.765Z,18.38
2022-12-03T07:51:35.558Z,19.88
2022-12-03T07:54:02.468Z,18.45
2022-12-03T07:56:29.377Z,20.70
2022-12-03T07:58:56.546Z,16.63
2022-12-03T08:01:23.515Z,19.95
2022-12-03T08:03:50.509Z,20.80
2022-12-03T08:06:17.363Z,16.67
2022-12-03T08:08:44.270Z,17.10
2022-12-03T08:11:14.321Z,17.55
2022-12-03T08:13:41.253Z,17.98
2022-12-03T08:16:21.127Z,18.65
2022-12-03T08:18:49.867Z,16.50
2022-12-03T08:21:19.516Z,16.90
2022-12-03T08:23:46.504Z,18.42
2022-12-03T08:26:22.689Z,19.40
2022-12-03T08:28:50.184Z,17.40
2022-12-03T08:31:28.020Z,30.90
2022-12-03T08:34:14.998Z,18.85
2022-12-03T08:36:41.970Z,17.50
2022-12-03T08:39:30.756Z,25.52
2022-12-03T08:42:24.671Z,21.02
2022-12-03T08:44:52.826Z,16.58
2022-12-03T08:47:21.983Z,19.13
2022-12-03T08:50:01.335Z,14.98
2022-12-03T08:52:33.331Z,18.38
2022-12-03T08:55:11.028Z,15.65
2022-12-03T08:57:37.913Z,17.50
2022-12-03T09:00:23.883Z,16.33
2022-12-03T09:02:55.614Z,16.05
2022-12-03T09:05:26.456Z,17.45
2022-12-03T09:07:53.486Z,18.02
2022-12-03T09:10:20.494Z,14.57
2022-12-03T09:12:47.444Z,18.05
2022-12-03T09:15:15.453Z,18.85
2022-12-03T09:17:42.333Z,17.45
2022-12-03T09:20:09.860Z,13.82
2022-12-03T09:22:36.813Z,17.40
2022-12-03T09:25:04.106Z,17.20
2022-12-03T09:27:31.114Z,15.70
2022-12-03T09:29:58.160Z,16.65
2022-12-03T09:32:25.376Z,19.08
2022-12-03T09:34:52.746Z,15.98
2022-12-03T09:37:22.425Z,17.70
2022-12-03T09:39:49.347Z,17.77
2022-12-03T09:42:16.503Z,20.85
2022-12-03T09:44:44.257Z,17.10
2022-12-03T09:47:11.364Z,20.45
2022-12-03T09:49:40.870Z,17.88
2022-12-03T09:52:08.286Z,15.63
2022-12-03T09:54:35.531Z,15.50
2022-12-03T09:57:04.350Z,16.80
2022-12-03T09:59:35.267Z,20.88
2022-12-03T10:02:02.803Z,17.88
2022-12-03T10:04:30.208Z,21.75
2022-12-03T10:06:59.068Z,16.17
2022-12-03T10:09:28.623Z,14.45
2022-12-03T10:11:59.993Z,15.32
2022-12-03T10:14:27.890Z,14.90
2022-12-03T10:16:55.424Z,12.10
2022-12-03T10:19:28.347Z,15.77
2022-12-03T10:21:55.876Z,19.58
2022-12-03T10:24:26.082Z,20.42
2022-12-03T10:26:58.191Z,20.35
2022-12-03T10:29:33.271Z,16.98
2022-12-03T10:32:02.625Z,18.85
2022-12-03T10:34:35.337Z,22.38
2022-12-03T10:37:22.748Z,24.00
2022-12-03T10:40:08.248Z,17.05
2022-12-03T10:42:37.950Z,20.73
2022-12-03T10:45:23.083Z,21.15
2022-12-03T10:48:06.583Z,20.40
2022-12-03T10:50:35.172Z,19.60
2022-12-03T10:53:02.382Z,20.73
2022-12-03T10:55:38.772Z,17.55
2022-12-03T10:58:05.932Z,24.05
2022-12-03T11:00:32.791Z,23.30
2022-12-03T11:02:59.674Z,22.35
2022-12-03T11:05:27.603Z,18.88
2022-12-03T11:07:55.020Z,21.42
2022-12-03T11:10:22.263Z,18.70
2022-12-03T11:13:31.467Z,25.35
2022-12-03T11:15:59.576Z,26.70
2022-12-03T11:18:38.955Z,19.50
2022-12-03T11:21:07.223Z,21.70
2022-12-03T11:23:46.476Z,19.00
2022-12-03T11:26:19.294Z,19.25
2022-12-03T11:28:46.531Z,20.70
2022-12-03T11:31:35.753Z,24.60
2022-12-03T11:34:29.420Z,21.38
2022-12-03T11:37:11.430Z,23.48
2022-12-03T11:39:56.894Z,18.88
2022-12-03T11:42:26.985Z,14.32
2022-12-03T11:45:05.720Z,20.70
2022-12-03T11:47:34.409Z,22.35
2022-12-03T11:50:01.655Z,23.15
2022-12-03T11:52:32.616Z,21.55
2022-12-03T11:55:18.100Z,24.48
2022-12-03T11:57:45.795Z,31.77
2022-12-03T12:00:18.496Z,28.65
2022-12-03T12:02:46.097Z,25.70
2022-12-03T12:05:33.453Z,26.35
2022-12-03T12:08:02.219Z,30.13
2022-12-03T12:10:43.043Z,20.65
2022-12-03T12:13:33.940Z,30.92
2022-12-03T12:16:06.046Z,21.67
2022-12-03T12:18:46.729Z,24.30
2022-12-03T12:21:38.437Z,23.35
2022-12-03T12:24:30.120Z,23.67
2022-12-03T12:27:01.856Z,24.15
2022-12-03T12:29:29.062Z,24.33
2022-12-03T12:32:13.109Z,24.08
2022-12-03T12:34:43.095Z,26.00
2022-12-03T12:37:21.327Z,26.40
2022-12-03T12:39:49.143Z,23.75
2022-12-03T12:42:53.259Z,27.88
2022-12-03T12:45:25.784Z,30.15
2022-12-03T12:48:10.279Z,22.52
2022-12-03T12:50:38.833Z,25.80
2022-12-03T12:53:12.508Z,25.63
2022-12-03T12:55:40.165Z,26.45
2022-12-03T12:58:19.075Z,27.85
2022-12-03T13:00:55.265Z,27.27
2022-12-03T13:03:25.651Z,30.10
2022-12-03T13:05:54.117Z,29.92
2022-12-03T13:08:25.739Z,23.90
2022-12-03T13:10:55.230Z,29.58
2022-12-03T13:13:29.886Z,37.05
2022-12-03T13:16:01.225Z,27.88
2022-12-03T13:18:33.643Z,30.52
2022-12-03T13:21:21.658Z,31.73
2022-12-03T13:23:52.187Z,30.50
2022-12-03T13:26:40.020Z,30.65
2022-12-03T13:29:18.491Z,28.15
2022-12-03T13:31:52.313Z,27.05
2022-12-03T13:34:22.450Z,28.52
2022-12-03T13:36:55.369Z,35.42
2022-12-03T13:39:35.185Z,33.35
2022-12-03T13:42:26.781Z,31.25
2022-12-03T13:44:53.917Z,37.03
2022-12-03T13:47:22.993Z,33.92
2022-12-03T13:49:56.003Z,35.33
2022-12-03T13:52:25.727Z,37.55
2022-12-03T13:54:55.590Z,31.17
2022-12-03T13:57:23.165Z,29.27
2022-12-03T13:59:50.233Z,33.60
2022-12-03T14:02:17.317Z,33.63
2022-12-03T14:04:44.246Z,37.63
2022-12-03T14:07:11.161Z,33.78
2022-12-03T14:09:37.962Z,29.25
2022-12-03T14:12:23.418Z,35.63
2022-12-03T14:14:50.199Z,31.20
2022-12-03T14:17:17.245Z,32.58
2022-12-03T14:19:44.790Z,36.15
2022-12-03T14:22:11.986Z,33.35
2022-12-03T14:24:42.543Z,35.05
2022-12-03T14:27:09.433Z,33.47
2022-12-03T14:29:36.341Z,32.35
2022-12-03T14:32:03.269Z,32.78
2022-12-03T14:34:30.652Z,30.20
2022-12-03T14:36:57.587Z,30.70
2022-12-03T14:39:25.376Z,26.73
2022-12-03T14:42:10.863Z,36.40
2022-12-03T14:44:37.683Z,29.33
2022-12-03T14:47:04.559Z,27.17
2022-12-03T14:49:31.690Z,30.95
2022-12-03T14:51:59.494Z,27.95
2022-12-03T14:54:29.299Z,30.63
2022-12-03T14:56:56.433Z,23.10
2022-12-03T14:59:27.593Z,30.60
2022-12-03T15:01:55.734Z,27.67
2022-12-03T15:04:22.847Z,27.40
2022-12-03T15:06:49.733Z,23.50
2022-12-03T15:09:16.937Z,26.20
2022-12-03T15:27:46.764Z,25.65
2022-12-03T15:30:13.766Z,23.58
2022-12-03T15:32:40.578Z,26.08
2022-12-03T15:35:08.031Z,26.42
2022-12-03T15:37:34.801Z,28.58
2022-12-03T15:40:01.928Z,24.15
2022-12-03T15:42:29.824Z,24.52
2022-12-03T15:44:56.659Z,27.00
2022-12-03T15:47:23.531Z,23.95
2022-12-03T15:49:50.383Z,22.90
2022-12-03T15:52:17.296Z,21.67
2022-12-03T15:54:44.356Z,17.65
2022-12-03T15:57:11.514Z,18.13
2022-12-03T15:59:38.962Z,18.75
2022-12-03T16:02:06.075Z,25.73
2022-12-03T16:04:33.090Z,18.92
2022-12-03T16:06:59.997Z,20.30
2022-12-03T16:09:27.869Z,21.70
2022-12-03T16:11:54.919Z,20.45
2022-12-03T16:14:21.742Z,21.15
2022-12-03T16:16:48.633Z,20.27
2022-12-03T16:19:15.472Z,19.35
2022-12-03T16:21:42.291Z,18.98
2022-12-03T16:24:09.279Z,17.92
2022-12-03T16:26:36.242Z,18.02
2022-12-03T16:29:03.180Z,20.58
2022-12-03T16:31:30.266Z,22.02
2022-12-03T16:33:57.198Z,23.60
2022-12-03T16:36:24.032Z,17.42
2022-12-03T16:38:50.907Z,18.35
2022-12-03T16:41:18.565Z,27.65
2022-12-03T16:43:48.438Z,22.30
2022-12-03T16:46:15.560Z,28.13
2022-12-03T16:48:43.098Z,18.80
2022-12-03T16:51:10.688Z,22.05
2022-12-03T16:53:38.234Z,20.70
2022-12-03T16:56:05.269Z,22.48
2022-12-03T16:58:32.173Z,25.13
2022-12-03T17:00:59.085Z,17.77
2022-12-03T17:03:32.076Z,21.20
2022-12-03T17:06:00.874Z,19.83
2022-12-03T17:08:27.986Z,21.00
2022-12-03T17:10:54.949Z,19.13
2022-12-03T17:13:23.322Z,19.33
2022-12-03T17:15:51.150Z,19.63
2022-12-03T17:18:18.097Z,23.48
2022-12-03T17:20:44.998Z,19.27
2022-12-03T17:23:12.723Z,21.85
2022-12-03T17:25:39.584Z,21.10
2022-12-03T17:28:06.443Z,20.77
2022-12-03T17:30:33.454Z,23.40
2022-12-03T17:33:01.296Z,21.38
2022-12-03T17:35:28.680Z,22.05
2022-12-03T17:37:55.614Z,18.15
2022-12-03T17:40:22.594Z,20.17
2022-12-03T17:42:49.561Z,22.52
2022-12-03T17:45:16.452Z,19.70
2022-12-03T17:47:43.288Z,22.13
2022-12-03T17:50:10.547Z,23.58
2022-12-03T17:52:37.454Z,21.55
2022-12-03T17:55:16.271Z,21.60
2022-12-03T17:57:44.885Z,19.05
2022-12-03T18:00:12.461Z,24.55
2022-12-03T18:02:39.431Z,20.05
2022-12-03T18:05:06.735Z,24.58
2022-12-03T18:07:34.074Z,23.27
2022-12-03T18:10:04.130Z,19.30
2022-12-03T18:12:34.250Z,16.83
2022-12-03T18:15:01.181Z,20.85
2022-12-03T18:17:28.000Z,20.13
2022-12-03T18:19:55.104Z,18.27
2022-12-03T18:22:22.086Z,16.80
2022-12-03T18:24:52.010Z,18.75
2022-12-03T18:27:21.326Z,19.33
2022-12-03T18:29:48.649Z,18.83
2022-12-03T18:32:28.682Z,17.20
2022-12-03T18:34:57.953Z,17.05
2022-12-03T18:37:27.944Z,17.23
2022-12-03T18:39:55.675Z,19.25
2022-12-03T18:42:23.847Z,20.08
2022-12-03T18:44:54.131Z,21.15
2022-12-03T18:47:24.134Z,16.73
2022-12-03T18:49:51.500Z,17.85
2022-12-03T18:52:21.794Z,21.33
2022-12-03T18:54:49.383Z,18.63
2022-12-03T18:57:17.385Z,18.98
2022-12-03T18:59:44.450Z,16.52
2022-12-03T19:02:38.381Z,17.42
2022-12-03T19:05:04.141Z,17.52
2022-12-03T19:07:31.087Z,20.98
2022-12-03T19:09:57.956Z,20.02
2022-12-03T19:12:24.886Z,23.05
2022-12-03T19:14:51.787Z,24.30
2022-12-03T19:17:18.694Z,21.20
2022-12-03T19:19:46.596Z,19.90
2022-12-03T19:22:13.534Z,26.02
2022-12-03T19:24:40.315Z,18.05
2022-12-03T19:27:07.230Z,19.27
2022-12-03T19:29:34.086Z,18.75
2022-12-03T19:32:01.127Z,22.90
2022-12-03T19:34:28.042Z,20.02
2022-12-03T19:36:54.889Z,21.35
2022-12-03T19:39:21.810Z,21.35
2022-12-03T19:41:48.762Z,22.73
2022-12-03T19:44:17.245Z,20.10
2022-12-03T19:46:44.627Z,17.70
2022-12-03T19:49:12.061Z,19.38
2022-12-03T19:51:38.971Z,17.98
2022-12-03T19:54:07.633Z,19.13
2022-12-03T19:56:35.328Z,19.13
2022-12-03T19:59:02.448Z,18.63
2022-12-03T20:01:32.201Z,19.30
2022-12-03T20:04:01.015Z,22.77
2022-12-03T20:06:30.389Z,16.45
2022-12-03T20:08:59.578Z,16.67
2022-12-03T20:11:29.516Z,18.83
2022-12-03T20:14:02.864Z,15.98
2022-12-03T20:16:30.420Z,19.67
2022-12-03T20:18:59.813Z,15.75
2022-12-03T20:21:28.615Z,13.50
2022-12-03T20:23:55.501Z,18.98
2022-12-03T20:26:23.242Z,14.80
2022-12-03T20:28:50.767Z,15.55
2022-12-03T20:31:20.617Z,19.00
2022-12-03T20:33:50.233Z,15.82
2022-12-03T20:36:19.188Z,14.60
2022-12-03T20:38:46.147Z,14.85
2022-12-03T20:41:15.977Z,18.10
2022-12-03T20:43:43.065Z,18.95
2022-12-03T20:46:15.520Z,15.68
2022-12-03T20:48:43.967Z,14.63
2022-12-03T20:51:14.133Z,16.23
2022-12-03T20:53:41.769Z,17.85
2022-12-03T20:56:09.434Z,14.32
2022-12-03T20:58:36.653Z,14.57
2022-12-03T21:01:16.206Z,16.13
2022-12-03T21:03:44.668Z,15.63
2022-12-03T21:06:12.790Z,15.43
2022-12-03T21:08:41.862Z,16.92
2022-12-03T21:11:15.398Z,16.20
2022-12-03T21:13:43.921Z,15.63
2022-12-03T21:16:18.366Z,18.40
2022-12-03T21:18:45.979Z,15.60
2022-12-03T21:21:15.015Z,14.88
2022-12-03T21:23:42.226Z,16.80
2022-12-03T21:26:17.122Z,15.00
2022-12-03T21:28:45.543Z,14.38
2022-12-03T21:31:15.111Z,12.02
2022-12-03T21:33:42.711Z,14.95
2022-12-03T21:36:10.363Z,16.45
2022-12-03T21:38:38.235Z,13.10
2022-12-03T21:41:05.766Z,16.50
2022-12-03T21:43:32.696Z,17.20
2022-12-03T21:46:00.327Z,14.82
2022-12-03T21:48:27.224Z,17.08
2022-12-03T21:51:06.716Z,15.23
2022-12-03T21:53:40.456Z,17.70
2022-12-03T21:56:16.135Z,13.57
2022-12-03T21:58:44.120Z,19.33
2022-12-03T22:01:23.272Z,15.52
2022-12-03T22:03:50.764Z,13.52
2022-12-03T22:06:18.382Z,16.65
2022-12-03T22:08:45.792Z,16.75
2022-12-03T22:11:21.849Z,13.73
2022-12-03T22:13:49.507Z,13.00
2022-12-03T22:16:20.274Z,14.00
2022-12-03T22:18:47.634Z,15.10
2022-12-03T22:21:17.361Z,14.90
2022-12-03T22:23:44.300Z,14.60
2022-12-03T22:26:13.217Z,15.63
2022-12-03T22:28:43.490Z,15.95
2022-12-03T22:31:14.053Z,17.17
2022-12-03T22:33:41.287Z,16.67
2022-12-03T22:36:18.014Z,13.73
2022-12-03T22:38:47.705Z,17.20
2022-12-03T22:41:15.233Z,17.88
2022-12-03T22:43:42.163Z,15.57
2022-12-03T22:46:12.987Z,12.93
2022-12-03T22:48:41.915Z,23.83
2022-12-03T22:51:19.093Z,14.88
2022-12-03T22:53:46.467Z,17.13
2022-12-03T22:56:13.564Z,19.30
2022-12-03T22:58:41.305Z,15.15
2022-12-03T23:01:08.310Z,14.63
2022-12-03T23:03:36.238Z,13.75
2022-12-03T23:06:10.088Z,15.20
2022-12-03T23:08:36.980Z,14.50
2022-12-03T23:11:04.746Z,18.42
2022-12-03T23:13:31.736Z,16.00
2022-12-03T23:15:58.564Z,15.07
2022-12-03T23:18:25.546Z,14.43
2022-12-03T23:20:54.064Z,16.35
2022-12-03T23:23:22.147Z,19.27
2022-12-03T23:25:59.418Z,18.65
2022-12-03T23:28:28.298Z,15.18
2022-12-03T23:30:55.814Z,15.90
2022-12-03T23:33:23.205Z,14.82
2022-12-03T23:35:50.084Z,14.38
2022-12-03T23:38:18.530Z,13.75
2022-12-03T23:40:48.538Z,15.18
2022-12-03T23:43:15.976Z,15.35
2022-12-03T23:45:42.836Z,13.60
2022-12-03T23:48:13.054Z,16.25
2022-12-03T23:50:41.387Z,12.48
2022-12-03T23:53:10.886Z,14.93
2022-12-03T23:55:40.950Z,14.60
2022-12-03T23:58:10.136Z,10.40
